Time;durP1;ratioP1;P1;durP2;ratioP2;P2;SDS_P1;SDS_P2;PMS_P1;PMS_P2;Temp;Humidity;BMP_temperature;BMP_pressure;BME280_temperature;BME280_humidity;BME280_pressure;Samples;Min_cycle;Max_cycle;Signal;HPM_P1;HPM_P2
2022/09/25 00:00:38;;;;;;;23.15;18.20;;;;;;;;;;5049247;28;20032;-69
2022/09/25 00:03:04;;;;;;;24.20;18.60;;;;;;;;;;5041999;28;20032;-70
2022/09/25 00:05:30;;;;;;;32.40;22.15;;;;;;;;;;5051846;28;20036;-69
2022/09/25 00:07:56;;;;;;;27.33;21.77;;;;;;;;;;5034668;28;20051;-69
2022/09/25 00:10:28;;;;;;;23.23;19.27;;;;;;;;;;5047380;28;20466;-69
2022/09/25 00:12:54;;;;;;;22.65;18.67;;;;;;;;;;5044687;28;20029;-69
2022/09/25 00:15:20;;;;;;;20.63;17.08;;;;;;;;;;5039783;28;20028;-69
2022/09/25 00:17:46;;;;;;;20.58;17.38;;;;;;;;;;5032895;28;20049;-69
2022/09/25 00:20:13;;;;;;;33.83;19.25;;;;;;;;;;5046574;28;20138;-69
2022/09/25 00:22:41;;;;;;;29.60;20.02;;;;;;;;;;5035237;28;20028;-69
2022/09/25 00:25:07;;;;;;;26.17;19.60;;;;;;;;;;5032156;28;20030;-69
2022/09/25 00:27:33;;;;;;;21.67;17.67;;;;;;;;;;5035929;28;20022;-69
2022/09/25 00:29:59;;;;;;;23.50;18.27;;;;;;;;;;5042264;28;20158;-69
2022/09/25 00:32:25;;;;;;;22.27;18.50;;;;;;;;;;5047547;28;20043;-68
2022/09/25 00:34:51;;;;;;;28.00;21.23;;;;;;;;;;5048896;28;20096;-71
2022/09/25 00:37:17;;;;;;;23.30;19.08;;;;;;;;;;5043151;28;20367;-70
2022/09/25 00:39:43;;;;;;;21.75;17.60;;;;;;;;;;5032858;28;20029;-69
2022/09/25 00:42:12;;;;;;;19.70;16.88;;;;;;;;;;5047634;28;20052;-69
2022/09/25 00:44:41;;;;;;;22.55;17.15;;;;;;;;;;5050497;28;20017;-68
2022/09/25 00:47:08;;;;;;;21.08;18.30;;;;;;;;;;5039429;28;20111;-69
2022/09/25 00:49:34;;;;;;;27.52;21.75;;;;;;;;;;5033077;28;20040;-69
2022/09/25 01:03:04;;;;;;;20.42;17.17;;;;;;;;;;5030821;28;20048;-70
2022/09/25 01:05:34;;;;;;;21.20;17.83;;;;;;;;;;5035325;28;20053;-70
2022/09/25 01:08:00;;;;;;;;;;;;;;;;;;5042867;28;20084;-69
2022/09/25 01:10:26;;;;;;;22.20;18.92;;;;;;;;;;5037181;28;19987;-69
2022/09/25 01:12:53;;;;;;;25.15;20.23;;;;;;;;;;5049847;28;20040;-69
2022/09/25 01:15:20;;;;;;;29.45;22.27;;;;;;;;;;5045701;28;20040;-70
2022/09/25 01:17:46;;;;;;;22.85;18.42;;;;;;;;;;5037459;28;20574;-70
2022/09/25 01:20:31;;;;;;;23.42;18.67;;;;;;;;;;5049047;28;20100;-69
2022/09/25 01:23:00;;;;;;;25.00;18.67;;;;;;;;;;5045019;28;20106;-69
2022/09/25 01:25:33;;;;;;;21.95;17.80;;;;;;;;;;5039995;28;20127;-69
2022/09/25 01:27:59;;;;;;;21.58;17.58;;;;;;;;;;5032606;28;20413;-69
2022/09/25 01:30:26;;;;;;;22.13;17.42;;;;;;;;;;5048622;28;20076;-69
2022/09/25 01:32:57;;;;;;;30.20;23.05;;;;;;;;;;5047374;28;20029;-69
2022/09/25 01:35:25;;;;;;;28.30;21.27;;;;;;;;;;5033635;28;20495;-69
2022/09/25 01:38:01;;;;;;;27.40;21.60;;;;;;;;;;5036761;28;20625;-69
2022/09/25 01:40:28;;;;;;;31.60;20.92;;;;;;;;;;5041463;28;20135;-69
2022/09/25 01:43:01;;;;;;;31.02;23.77;;;;;;;;;;5039428;28;20520;-69
2022/09/25 01:45:31;;;;;;;30.95;24.05;;;;;;;;;;5042790;28;20110;-70
2022/09/25 01:47:58;;;;;;;;;;;;;;;;;;5045448;28;20028;-70
2022/09/25 01:50:30;;;;;;;27.17;22.00;;;;;;;;;;5038216;28;19909;-70
2022/09/25 01:52:59;;;;;;;31.77;23.67;;;;;;;;;;5042428;28;20051;-69
2022/09/25 01:55:31;;;;;;;32.80;25.20;;;;;;;;;;5041486;28;20024;-70
2022/09/25 01:58:04;;;;;;;28.70;20.85;;;;;;;;;;5044074;28;20033;-69
2022/09/25 02:00:30;;;;;;;23.42;19.13;;;;;;;;;;5039714;28;20433;-70
2022/09/25 02:02:59;;;;;;;23.67;18.58;;;;;;;;;;5049352;28;20052;-70
2022/09/25 02:05:27;;;;;;;23.13;18.65;;;;;;;;;;5049702;28;20099;-69
2022/09/25 02:08:03;;;;;;;24.25;18.58;;;;;;;;;;5041277;28;20025;-69
2022/09/25 02:10:33;;;;;;;20.70;16.95;;;;;;;;;;5037155;28;20037;-69
2022/09/25 02:13:05;;;;;;;18.08;16.02;;;;;;;;;;5033631;28;20036;-69
2022/09/25 02:15:33;;;;;;;19.92;16.65;;;;;;;;;;5042474;28;20104;-69
2022/09/25 02:20:51;;;;;;;18.98;15.77;;;;;;;;;;5040965;28;20443;-70
2022/09/25 02:23:19;;;;;;;19.77;15.52;;;;;;;;;;5035353;28;20059;-69
2022/09/25 02:25:54;;;;;;;18.52;15.77;;;;;;;;;;5031159;28;20033;-69
2022/09/25 02:28:21;;;;;;;19.25;16.20;;;;;;;;;;5036089;28;20025;-69
2022/09/25 02:30:48;;;;;;;17.92;14.48;;;;;;;;;;5044244;28;20040;-69
2022/09/25 02:33:15;;;;;;;17.80;14.60;;;;;;;;;;5043296;28;20040;-69
2022/09/25 02:35:41;;;;;;;14.40;12.85;;;;;;;;;;5039999;28;20385;-69
2022/09/25 02:38:07;;;;;;;19.88;15.82;;;;;;;;;;5041890;28;20021;-69
2022/09/25 02:40:53;;;;;;;21.90;15.52;;;;;;;;;;5046250;28;20025;-70
2022/09/25 02:43:20;;;;;;;17.75;15.13;;;;;;;;;;5034784;28;20067;-69
2022/09/25 02:45:52;;;;;;;18.77;15.40;;;;;;;;;;5031514;28;20044;-69
2022/09/25 02:48:33;;;;;;;19.88;16.02;;;;;;;;;;5047644;28;20036;-69
2022/09/25 02:51:11;;;;;;;22.65;16.88;;;;;;;;;;5046844;28;20033;-69
2022/09/25 02:53:40;;;;;;;23.40;18.48;;;;;;;;;;5042949;28;20112;-69
2022/09/25 02:56:13;;;;;;;20.45;17.75;;;;;;;;;;5041150;28;20017;-68
2022/09/25 02:58:41;;;;;;;24.25;18.98;;;;;;;;;;5043369;28;20031;-69
2022/09/25 03:01:08;;;;;;;23.33;19.50;;;;;;;;;;5041581;28;20033;-69
2022/09/25 03:03:37;;;;;;;20.80;16.85;;;;;;;;;;5040399;28;20029;-69
2022/09/25 03:06:03;;;;;;;25.05;20.98;;;;;;;;;;5039299;28;20507;-69
2022/09/25 03:08:40;;;;;;;21.63;17.33;;;;;;;;;;5032819;28;20074;-70
2022/09/25 03:11:07;;;;;;;23.77;19.63;;;;;;;;;;5042001;28;20025;-68
2022/09/25 03:13:33;;;;;;;23.52;17.85;;;;;;;;;;5040700;28;20030;-69
2022/09/25 03:16:05;;;;;;;24.25;19.23;;;;;;;;;;5038633;28;20163;-69
2022/09/25 03:18:32;;;;;;;22.13;18.38;;;;;;;;;;5041960;28;20107;-69
2022/09/25 03:20:58;;;;;;;19.25;16.33;;;;;;;;;;5049220;28;20465;-69
2022/09/25 03:23:24;;;;;;;18.95;16.45;;;;;;;;;;5035896;28;20655;-69
2022/09/25 03:25:53;;;;;;;18.35;14.88;;;;;;;;;;5040450;28;20461;-70
2022/09/25 03:28:18;;;;;;;16.33;13.45;;;;;;;;;;5046060;28;20120;-69
2022/09/25 03:30:54;;;;;;;15.48;13.65;;;;;;;;;;5043295;28;20096;-69
2022/09/25 03:33:20;;;;;;;12.88;11.45;;;;;;;;;;5046011;28;20055;-70
2022/09/25 03:35:46;;;;;;;13.68;11.88;;;;;;;;;;5049086;28;20481;-70
2022/09/25 03:38:12;;;;;;;17.20;13.73;;;;;;;;;;5041011;28;20036;-69
2022/09/25 03:40:38;;;;;;;15.23;12.82;;;;;;;;;;5039055;28;20071;-69
2022/09/25 03:43:04;;;;;;;18.00;12.98;;;;;;;;;;5044389;28;20037;-69
2022/09/25 03:45:30;;;;;;;14.15;11.57;;;;;;;;;;5046797;28;20429;-69
2022/09/25 03:47:56;;;;;;;15.10;12.82;;;;;;;;;;5041300;28;20068;-69
2022/09/25 03:50:22;;;;;;;16.88;12.25;;;;;;;;;;5040870;28;20152;-69
2022/09/25 03:52:48;;;;;;;18.80;14.40;;;;;;;;;;5040449;28;20033;-69
2022/09/25 03:55:14;;;;;;;18.60;15.40;;;;;;;;;;5030298;28;20486;-69
2022/09/25 03:57:40;;;;;;;19.85;16.05;;;;;;;;;;5041998;28;20032;-69
2022/09/25 04:00:06;;;;;;;26.38;20.20;;;;;;;;;;5048956;28;20074;-68
2022/09/25 04:02:32;;;;;;;27.40;21.30;;;;;;;;;;5047731;28;20041;-69
2022/09/25 04:04:59;;;;;;;27.35;22.20;;;;;;;;;;5040089;28;20009;-68
2022/09/25 04:07:24;;;;;;;28.67;21.08;;;;;;;;;;5043529;28;20044;-69
2022/09/25 04:09:50;;;;;;;31.00;22.70;;;;;;;;;;5032286;28;20029;-69
2022/09/25 04:12:17;;;;;;;25.20;21.02;;;;;;;;;;5045793;28;20061;-69
2022/09/25 04:14:44;;;;;;;25.25;20.10;;;;;;;;;;5034082;28;20033;-69
2022/09/25 04:17:10;;;;;;;26.25;20.80;;;;;;;;;;5030963;28;20026;-69
2022/09/25 04:19:36;;;;;;;27.65;21.08;;;;;;;;;;5033144;28;20033;-69
2022/09/25 04:22:02;;;;;;;25.25;19.25;;;;;;;;;;5037410;28;20048;-70
2022/09/25 04:27:13;;;;;;;26.95;20.75;;;;;;;;;;5043045;28;20035;-70
2022/09/25 04:29:39;;;;;;;23.40;19.27;;;;;;;;;;5044853;28;20029;-70
2022/09/25 04:34:50;;;;;;;23.00;17.80;;;;;;;;;;5037962;28;20036;-68
2022/09/25 04:37:16;;;;;;;22.45;18.10;;;;;;;;;;5043708;28;20386;-68
2022/09/25 04:39:42;;;;;;;26.23;18.77;;;;;;;;;;5049539;28;20029;-69
2022/09/25 04:42:08;;;;;;;21.45;16.90;;;;;;;;;;5040935;28;20511;-69
2022/09/25 04:44:34;;;;;;;22.52;17.83;;;;;;;;;;5044292;28;20025;-69
2022/09/25 04:47:00;;;;;;;20.75;17.55;;;;;;;;;;5041036;28;20025;-69
2022/09/25 04:49:26;;;;;;;23.73;18.85;;;;;;;;;;5042367;28;20025;-69
2022/09/25 04:51:52;;;;;;;21.58;17.80;;;;;;;;;;5039069;28;20027;-69
2022/09/25 04:54:18;;;;;;;22.05;17.85;;;;;;;;;;5051529;28;20453;-69
2022/09/25 04:56:44;;;;;;;27.35;21.20;;;;;;;;;;5041587;28;20056;-68
2022/09/25 04:59:10;;;;;;;28.63;21.73;;;;;;;;;;5043164;28;20051;-69
2022/09/25 05:01:37;;;;;;;29.73;21.30;;;;;;;;;;5040459;28;20136;-69
2022/09/25 05:04:03;;;;;;;27.42;20.30;;;;;;;;;;5021264;28;20029;-69
2022/09/25 05:06:29;;;;;;;29.50;22.05;;;;;;;;;;5042900;28;20063;-69
2022/09/25 05:08:56;;;;;;;31.00;20.95;;;;;;;;;;5043731;28;20167;-68
2022/09/25 05:11:22;;;;;;;29.00;19.98;;;;;;;;;;5043452;28;20026;-69
2022/09/25 05:13:51;;;;;;;26.75;19.55;;;;;;;;;;5039635;28;20043;-69
2022/09/25 05:16:17;;;;;;;27.13;20.90;;;;;;;;;;5050975;28;20497;-68
2022/09/25 05:18:43;;;;;;;25.77;18.30;;;;;;;;;;5035077;28;20074;-68
2022/09/25 05:21:09;;;;;;;31.10;20.50;;;;;;;;;;5031971;28;20028;-68
2022/09/25 05:23:35;;;;;;;28.83;20.17;;;;;;;;;;5036611;28;20045;-69
2022/09/25 05:26:01;;;;;;;26.33;19.48;;;;;;;;;;5044346;28;20021;-68
2022/09/25 05:28:28;;;;;;;25.75;19.75;;;;;;;;;;5045371;28;20033;-68
2022/09/25 05:30:54;;;;;;;27.23;20.08;;;;;;;;;;5041876;28;20104;-69
2022/09/25 05:33:20;;;;;;;23.90;17.85;;;;;;;;;;5042159;28;20600;-68
2022/09/25 05:35:47;;;;;;;24.77;18.40;;;;;;;;;;5036296;28;20449;-69
2022/09/25 05:38:13;;;;;;;23.02;17.38;;;;;;;;;;5038572;28;20033;-69
2022/09/25 05:40:39;;;;;;;19.30;15.82;;;;;;;;;;5036895;28;20020;-69
2022/09/25 05:43:05;;;;;;;18.77;15.10;;;;;;;;;;5042311;28;20105;-69
2022/09/25 05:45:33;;;;;;;17.77;14.52;;;;;;;;;;5039787;28;20037;-69
2022/09/25 05:48:02;;;;;;;20.73;16.40;;;;;;;;;;5046913;28;20057;-69
2022/09/25 05:50:28;;;;;;;17.65;14.75;;;;;;;;;;5040783;28;20029;-68
2022/09/25 05:52:57;;;;;;;19.45;15.55;;;;;;;;;;5035915;28;20029;-69
2022/09/25 05:55:23;;;;;;;18.73;16.00;;;;;;;;;;5028657;28;20373;-69
2022/09/25 05:57:49;;;;;;;20.02;16.05;;;;;;;;;;5043960;28;20074;-69
2022/09/25 06:00:16;;;;;;;15.15;13.00;;;;;;;;;;5044183;28;20056;-69
2022/09/25 06:02:42;;;;;;;17.38;13.73;;;;;;;;;;5046602;28;20052;-69
2022/09/25 06:05:08;;;;;;;17.08;13.55;;;;;;;;;;5042092;28;20025;-69
2022/09/25 06:07:35;;;;;;;15.10;12.85;;;;;;;;;;5048163;28;20037;-70
2022/09/25 06:10:01;;;;;;;16.08;13.07;;;;;;;;;;5035290;28;20067;-69
2022/09/25 06:12:30;;;;;;;16.70;12.85;;;;;;;;;;5039817;28;20414;-69
2022/09/25 06:14:57;;;;;;;15.77;12.77;;;;;;;;;;5040116;28;20072;-69
2022/09/25 06:17:23;;;;;;;14.35;12.15;;;;;;;;;;5038367;28;20029;-69
2022/09/25 06:19:49;;;;;;;11.85;10.65;;;;;;;;;;5037368;28;20070;-69
2022/09/25 06:22:15;;;;;;;13.30;10.88;;;;;;;;;;5037196;28;20041;-69
2022/09/25 06:24:41;;;;;;;15.35;10.45;;;;;;;;;;5041378;28;20025;-69
2022/09/25 06:27:07;;;;;;;12.93;10.80;;;;;;;;;;5036436;28;20032;-70
2022/09/25 06:29:33;;;;;;;11.45;10.02;;;;;;;;;;5036370;28;20435;-70
2022/09/25 06:32:02;;;;;;;14.30;10.70;;;;;;;;;;5033809;28;20104;-69
2022/09/25 06:34:28;;;;;;;11.90;10.20;;;;;;;;;;5037911;28;20557;-69
2022/09/25 06:36:54;;;;;;;11.02;8.98;;;;;;;;;;5013526;28;20120;-69
2022/09/25 06:39:20;;;;;;;11.15;9.07;;;;;;;;;;5037668;28;20018;-69
2022/09/25 06:41:46;;;;;;;11.15;9.35;;;;;;;;;;5030446;28;20033;-69
2022/09/25 06:44:12;;;;;;;11.95;10.25;;;;;;;;;;5037563;28;20239;-69
2022/09/25 06:46:38;;;;;;;15.25;10.60;;;;;;;;;;5033821;28;20524;-69
2022/09/25 06:49:04;;;;;;;13.02;10.80;;;;;;;;;;5036168;28;20229;-70
2022/09/25 06:51:33;;;;;;;9.57;8.57;;;;;;;;;;5035809;28;20025;-67
2022/09/25 06:54:00;;;;;;;11.35;9.95;;;;;;;;;;5027595;28;20037;-70
2022/09/25 06:56:26;;;;;;;11.25;9.90;;;;;;;;;;5038372;28;20025;-68
2022/09/25 06:58:52;;;;;;;10.75;8.85;;;;;;;;;;5034870;28;20246;-69
2022/09/25 07:01:18;;;;;;;15.30;10.45;;;;;;;;;;5042311;28;20119;-68
2022/09/25 07:03:44;;;;;;;12.60;9.85;;;;;;;;;;5036988;28;20117;-69
2022/09/25 07:06:12;;;;;;;12.27;10.20;;;;;;;;;;5036717;28;20024;-68
2022/09/25 07:08:39;;;;;;;11.73;10.00;;;;;;;;;;5038766;28;20025;-69
2022/09/25 07:11:05;;;;;;;10.73;9.15;;;;;;;;;;5037183;28;20051;-70
2022/09/25 07:13:32;;;;;;;12.13;9.90;;;;;;;;;;5039509;28;20021;-69
2022/09/25 07:16:03;;;;;;;12.40;10.27;;;;;;;;;;5034116;28;20026;-70
2022/09/25 07:18:29;;;;;;;11.13;9.70;;;;;;;;;;5039516;28;20106;-70
2022/09/25 07:21:06;;;;;;;12.90;9.88;;;;;;;;;;5037906;28;20167;-70
2022/09/25 07:23:32;;;;;;;11.80;8.93;;;;;;;;;;5035377;28;20029;-69
2022/09/25 07:26:13;;;;;;;16.17;10.95;;;;;;;;;;5041354;28;20032;-69
2022/09/25 07:28:40;;;;;;;12.77;11.02;;;;;;;;;;5035787;28;20396;-70
2022/09/25 07:31:17;;;;;;;13.32;10.82;;;;;;;;;;5038758;28;20025;-70
2022/09/25 07:33:43;;;;;;;13.90;11.10;;;;;;;;;;5033633;28;20378;-70
2022/09/25 07:36:09;;;;;;;16.52;11.98;;;;;;;;;;5036913;28;20110;-70
2022/09/25 07:38:35;;;;;;;15.85;11.85;;;;;;;;;;5036187;28;20029;-69
2022/09/25 07:41:02;;;;;;;12.23;9.93;;;;;;;;;;5040040;28;20621;-70
2022/09/25 07:43:28;;;;;;;10.88;8.93;;;;;;;;;;5039215;28;20064;-72
2022/09/25 07:45:54;;;;;;;11.15;9.50;;;;;;;;;;5046094;28;20021;-70
2022/09/25 07:48:22;;;;;;;10.50;9.25;;;;;;;;;;5025756;28;20025;-70
2022/09/25 07:50:49;;;;;;;13.45;9.88;;;;;;;;;;5050288;28;20025;-70
2022/09/25 07:53:16;;;;;;;12.68;10.63;;;;;;;;;;5041884;28;20056;-69
2022/09/25 07:55:42;;;;;;;16.20;10.93;;;;;;;;;;5035666;28;20474;-71
2022/09/25 07:58:08;;;;;;;15.43;11.55;;;;;;;;;;5049227;28;20133;-70
2022/09/25 08:00:34;;;;;;;13.10;10.57;;;;;;;;;;5056721;28;20025;-69
2022/09/25 08:03:00;;;;;;;12.60;10.15;;;;;;;;;;5050236;28;20050;-69
2022/09/25 08:05:27;;;;;;;10.38;8.90;;;;;;;;;;5042817;28;20414;-70
2022/09/25 08:07:53;;;;;;;10.80;9.05;;;;;;;;;;5042243;28;20021;-69
2022/09/25 08:10:19;;;;;;;12.45;8.77;;;;;;;;;;5044564;28;20500;-68
2022/09/25 08:12:45;;;;;;;12.20;9.13;;;;;;;;;;5044268;28;20029;-70
2022/09/25 08:15:13;;;;;;;13.50;10.43;;;;;;;;;;5039034;28;20031;-68
2022/09/25 08:17:39;;;;;;;13.80;10.63;;;;;;;;;;5047613;28;20021;-68
2022/09/25 08:20:05;;;;;;;12.43;9.02;;;;;;;;;;5041412;28;20025;-68
2022/09/25 08:22:32;;;;;;;10.88;8.98;;;;;;;;;;5041895;28;20033;-69
2022/09/25 08:25:01;;;;;;;10.93;7.88;;;;;;;;;;5036379;28;20112;-69
2022/09/25 08:27:27;;;;;;;8.20;7.40;;;;;;;;;;5039126;28;20065;-70
2022/09/25 08:29:53;;;;;;;12.32;8.90;;;;;;;;;;5046833;28;20405;-70
2022/09/25 08:32:19;;;;;;;8.13;7.22;;;;;;;;;;5039807;28;20036;-69
2022/09/25 08:34:46;;;;;;;10.07;7.68;;;;;;;;;;5045709;28;20416;-70
2022/09/25 08:37:12;;;;;;;8.80;7.22;;;;;;;;;;5024121;28;20068;-70
2022/09/25 08:39:38;;;;;;;11.95;10.63;;;;;;;;;;5043869;28;20038;-70
2022/09/25 08:42:04;;;;;;;12.73;10.93;;;;;;;;;;5039366;28;20028;-70
2022/09/25 08:44:35;;;;;;;13.77;10.60;;;;;;;;;;5045523;28;20492;-70
2022/09/25 08:50:03;;;;;;;14.60;12.00;;;;;;;;;;5048491;28;20056;-70
2022/09/25 08:52:30;;;;;;;13.07;11.05;;;;;;;;;;5045946;28;20037;-69
2022/09/25 08:54:56;;;;;;;13.00;10.43;;;;;;;;;;5046002;28;20032;-69
2022/09/25 08:57:33;;;;;;;13.65;10.90;;;;;;;;;;5047093;28;20374;-70
2022/09/25 09:00:01;;;;;;;11.32;10.20;;;;;;;;;;5034412;28;20013;-70
2022/09/25 09:02:41;;;;;;;12.38;10.63;;;;;;;;;;5033800;28;20068;-73
2022/09/25 09:05:14;;;;;;;12.20;10.63;;;;;;;;;;5039199;28;20099;-72
2022/09/25 09:07:46;;;;;;;13.15;10.30;;;;;;;;;;5040037;28;20021;-74
2022/09/25 09:10:24;;;;;;;11.10;8.70;;;;;;;;;;5044630;28;20060;-72
2022/09/25 09:12:53;;;;;;;11.35;10.15;;;;;;;;;;5046229;28;20064;-71
2022/09/25 09:15:29;;;;;;;12.23;10.40;;;;;;;;;;5041932;28;20082;-68
2022/09/25 09:17:56;;;;;;;13.10;11.07;;;;;;;;;;5044210;28;20386;-70
2022/09/25 09:20:37;;;;;;;12.05;10.32;;;;;;;;;;5044538;28;20036;-70
2022/09/25 09:23:04;;;;;;;15.95;11.63;;;;;;;;;;5045734;28;20572;-72
2022/09/25 09:25:43;;;;;;;11.88;10.38;;;;;;;;;;5044404;28;20044;-68
2022/09/25 09:28:33;;;;;;;12.47;10.43;;;;;;;;;;5041448;28;20451;-68
2022/09/25 09:31:07;;;;;;;12.68;10.25;;;;;;;;;;5041961;28;20334;-71
2022/09/25 09:33:43;;;;;;;11.23;9.40;;;;;;;;;;5050262;28;20079;-76
2022/09/25 09:36:18;;;;;;;11.55;10.32;;;;;;;;;;5040922;28;20417;-72
2022/09/25 09:38:56;;;;;;;11.45;9.68;;;;;;;;;;5018777;28;20385;-72
2022/09/25 09:41:28;;;;;;;10.50;9.25;;;;;;;;;;5043112;28;21004;-72
2022/09/25 09:43:53;;;;;;;9.95;8.88;;;;;;;;;;5033458;28;20096;-71
2022/09/25 09:46:20;;;;;;;12.65;9.90;;;;;;;;;;5033836;28;20100;-72
2022/09/25 09:49:04;;;;;;;12.13;9.45;;;;;;;;;;5034787;28;20029;-72
2022/09/25 09:51:36;;;;;;;9.38;7.97;;;;;;;;;;5038027;28;20026;-72
2022/09/25 09:54:26;;;;;;;11.40;9.43;;;;;;;;;;5039089;28;20382;-71
2022/09/25 09:56:54;;;;;;;10.88;9.00;;;;;;;;;;5033784;28;20057;-71
2022/09/25 09:59:30;;;;;;;12.73;9.57;;;;;;;;;;5035707;28;20033;-69
2022/09/25 10:02:01;;;;;;;11.70;8.98;;;;;;;;;;5038055;28;20045;-70
2022/09/25 10:04:31;;;;;;;9.77;7.88;;;;;;;;;;5038268;28;20022;-71
2022/09/25 10:07:00;;;;;;;10.25;8.65;;;;;;;;;;5026549;28;20029;-70
2022/09/25 10:09:27;;;;;;;7.82;7.03;;;;;;;;;;5038170;28;20037;-73
2022/09/25 10:11:58;;;;;;;11.35;7.50;;;;;;;;;;5038702;28;20052;-70
2022/09/25 10:14:26;;;;;;;7.68;6.63;;;;;;;;;;5038750;28;20466;-71
2022/09/25 10:16:53;;;;;;;9.82;6.90;;;;;;;;;;5037538;28;20033;-72
2022/09/25 10:19:23;;;;;;;8.70;7.30;;;;;;;;;;5045505;28;20054;-72
2022/09/25 10:21:53;;;;;;;11.10;7.60;;;;;;;;;;5017070;28;20498;-71
2022/09/25 10:24:50;;;;;;;9.10;7.05;;;;;;;;;;5041272;28;20032;-73
2022/09/25 10:27:20;;;;;;;7.57;6.68;;;;;;;;;;5045653;28;20083;-72
2022/09/25 10:29:46;;;;;;;9.27;7.57;;;;;;;;;;5036441;28;20029;-75
2022/09/25 10:32:13;;;;;;;7.82;7.05;;;;;;;;;;5032530;28;22468;-70
2022/09/25 10:34:52;;;;;;;9.38;7.22;;;;;;;;;;5038162;28;21944;-70
2022/09/25 10:37:20;;;;;;;8.60;6.90;;;;;;;;;;5036486;28;20420;-71
2022/09/25 10:40:00;;;;;;;7.97;7.05;;;;;;;;;;5035612;28;20029;-72
2022/09/25 10:42:37;;;;;;;9.20;6.88;;;;;;;;;;5045514;28;20389;-70
2022/09/25 10:45:22;;;;;;;9.20;6.72;;;;;;;;;;5041245;28;20025;-72
2022/09/25 10:50:35;;;;;;;9.48;6.25;;;;;;;;;;5039306;28;20390;-77
2022/09/25 10:53:03;;;;;;;9.90;7.65;;;;;;;;;;5038724;28;20037;-74
2022/09/25 10:55:50;;;;;;;8.60;7.43;;;;;;;;;;5046557;28;20033;-78
2022/09/25 10:58:28;;;;;;;6.95;5.90;;;;;;;;;;5038796;28;20037;-75
2022/09/25 11:00:55;;;;;;;8.88;7.80;;;;;;;;;;5038043;28;20021;-74
2022/09/25 11:03:22;;;;;;;11.18;7.88;;;;;;;;;;5037621;28;20960;-75
2022/09/25 11:05:56;;;;;;;11.50;7.75;;;;;;;;;;5032131;28;20032;-75
2022/09/25 11:08:29;;;;;;;12.10;8.35;;;;;;;;;;5032857;28;20448;-79
2022/09/25 11:10:58;;;;;;;10.90;9.40;;;;;;;;;;5040338;28;20499;-75
2022/09/25 11:13:38;;;;;;;13.38;10.57;;;;;;;;;;5037907;28;20033;-76
2022/09/25 11:16:09;;;;;;;;;;;;;;;;;;5036651;28;20026;-77
2022/09/25 11:18:35;;;;;;;12.05;9.80;;;;;;;;;;5038243;28;19909;-76
2022/09/25 11:21:02;;;;;;;18.33;11.98;;;;;;;;;;5031243;28;20037;-75
2022/09/25 11:23:28;;;;;;;15.50;12.52;;;;;;;;;;5031647;28;20098;-75
2022/09/25 11:26:04;;;;;;;18.67;14.05;;;;;;;;;;5043149;28;20017;-83
2022/09/25 11:28:30;;;;;;;20.05;14.27;;;;;;;;;;5036819;28;20489;-75
2022/09/25 11:31:13;;;;;;;20.98;15.27;;;;;;;;;;5031376;28;20106;-80
2022/09/25 11:33:47;;;;;;;17.10;13.68;;;;;;;;;;5037074;28;20094;-78
2022/09/25 11:36:22;;;;;;;17.38;11.98;;;;;;;;;;5042271;28;20038;-79
2022/09/25 11:41:50;;;;;;;20.52;15.13;;;;;;;;;;4972816;28;20542;-76
2022/09/25 11:44:22;;;;;;;18.90;15.23;;;;;;;;;;5035692;28;20029;-75
2022/09/25 11:46:55;;;;;;;25.02;15.88;;;;;;;;;;5036832;28;20025;-75
2022/09/25 11:49:23;;;;;;;20.35;15.48;;;;;;;;;;5033003;28;20379;-74
2022/09/25 11:51:58;;;;;;;20.75;14.02;;;;;;;;;;5041408;28;20029;-74
2022/09/25 11:54:42;;;;;;;20.42;13.85;;;;;;;;;;5025303;28;20017;-74
2022/09/25 11:57:16;;;;;;;20.45;13.18;;;;;;;;;;5041796;28;20030;-73
2022/09/25 12:00:03;;;;;;;18.85;13.75;;;;;;;;;;5043462;28;20493;-73
2022/09/25 12:02:39;;;;;;;15.43;12.32;;;;;;;;;;5033605;28;20049;-74
2022/09/25 12:05:08;;;;;;;19.27;13.82;;;;;;;;;;5040184;28;20720;-75
2022/09/25 12:07:39;;;;;;;17.23;13.07;;;;;;;;;;5043823;28;20101;-76
2022/09/25 12:10:25;;;;;;;18.85;13.07;;;;;;;;;;5042183;28;20342;-74
2022/09/25 12:13:10;;;;;;;18.00;12.75;;;;;;;;;;5043014;28;20464;-77
2022/09/25 12:16:02;;;;;;;17.92;13.95;;;;;;;;;;5035475;28;20033;-76
2022/09/25 12:18:43;;;;;;;17.67;12.40;;;;;;;;;;5039057;28;20104;-74
2022/09/25 12:21:16;;;;;;;16.67;13.43;;;;;;;;;;5039608;28;20024;-74
2022/09/25 12:23:53;;;;;;;15.32;13.23;;;;;;;;;;5036170;28;20668;-75
2022/09/25 12:26:42;;;;;;;16.92;12.98;;;;;;;;;;5042499;28;20064;-76
2022/09/25 12:29:14;;;;;;;16.15;13.55;;;;;;;;;;5040320;28;20033;-75
2022/09/25 12:31:40;;;;;;;17.85;13.13;;;;;;;;;;5047782;28;20037;-77
2022/09/25 12:34:13;;;;;;;19.80;14.57;;;;;;;;;;5048983;28;20016;-75
2022/09/25 12:36:42;;;;;;;17.23;12.73;;;;;;;;;;5039702;28;20040;-75
2022/09/25 12:39:14;;;;;;;21.80;15.32;;;;;;;;;;5027161;28;20029;-73
2022/09/25 12:41:43;;;;;;;21.33;13.80;;;;;;;;;;5041257;28;20080;-76
2022/09/25 12:44:32;;;;;;;18.25;13.18;;;;;;;;;;5035830;28;20024;-73
2022/09/25 12:47:04;;;;;;;17.42;13.57;;;;;;;;;;5034082;28;20036;-73
2022/09/25 12:49:48;;;;;;;15.95;12.88;;;;;;;;;;5039877;28;20029;-74
2022/09/25 12:52:28;;;;;;;17.85;12.63;;;18.70;99.90;;;;;;5036579;28;20025;-74
2022/09/25 12:54:59;;;;;;;15.77;10.80;;;19.40;99.90;;;;;;5042380;28;20036;-75
2022/09/25 12:57:37;;;;;;;12.43;10.35;;;20.10;99.90;;;;;;5040895;28;20037;-74
2022/09/25 13:00:07;;;;;;;14.02;12.13;;;20.70;99.90;;;;;;5044957;28;20065;-73
2022/09/25 13:02:46;;;;;;;15.65;11.55;;;20.70;99.90;;;;;;5023050;28;20124;-74
2022/09/25 13:05:12;;;;;;;13.60;10.80;;;20.20;99.90;;;;;;5038893;28;20155;-75
2022/09/25 13:07:48;;;;;;;17.45;12.77;;;19.70;99.90;;;;;;5043076;28;20104;-74
2022/09/25 13:10:20;;;;;;;14.63;11.93;;;19.10;99.90;;;;;;5042603;28;20041;-74
2022/09/25 13:12:47;;;;;;;18.50;12.63;;;18.40;99.90;;;;;;5040496;28;20076;-74
2022/09/25 13:15:22;;;;;;;13.15;10.98;;;18.00;99.90;;;;;;5039769;28;20024;-75
2022/09/25 13:17:48;;;;;;;14.32;10.80;;;17.70;99.90;;;;;;5040360;28;20040;-75
2022/09/25 13:20:30;;;;;;;13.10;10.95;;;17.60;99.90;;;;;;5040395;28;20604;-75
2022/09/25 13:22:57;;;;;;;25.67;12.10;;;17.50;99.90;;;;;;5035590;28;20037;-74
2022/09/25 13:25:24;;;;;;;12.88;10.60;;;17.50;99.90;;;;;;5040580;28;20044;-75
2022/09/25 13:27:53;;;;;;;15.40;11.10;;;17.50;99.90;;;;;;5038380;28;20054;-74
2022/09/25 13:30:28;;;;;;;11.27;8.98;;;17.50;99.90;;;;;;5037532;28;20036;-77
2022/09/25 13:33:02;;;;;;;11.23;8.95;;;17.40;99.90;;;;;;5039890;28;20390;-75
2022/09/25 13:35:30;;;;;;;11.15;9.48;;;17.30;99.90;;;;;;5038142;28;20024;-75
2022/09/25 13:38:10;;;;;;;13.23;9.77;;;17.10;99.90;;;;;;5039229;28;20038;-73
2022/09/25 13:40:44;;;;;;;10.75;8.85;;;17.00;99.90;;;;;;5036704;28;20025;-72
2022/09/25 13:43:19;;;;;;;10.45;8.10;;;16.90;99.90;;;;;;5038590;28;20025;-74
2022/09/25 13:45:45;;;;;;;9.25;8.13;;;17.00;99.90;;;;;;5038933;28;20393;-74
2022/09/25 13:48:31;;;;;;;11.95;8.27;;;17.40;99.90;;;;;;5032176;28;20025;-72
2022/09/25 13:51:18;;;;;;;12.18;9.55;;;17.80;99.90;;;;;;5032783;28;20034;-75
2022/09/25 13:53:58;;;;;;;12.43;9.13;;;17.90;99.90;;;;;;5032385;28;20084;-75
2022/09/25 13:56:27;;;;;;;14.30;9.55;;;18.00;99.90;;;;;;5035823;28;20039;-76
2022/09/25 13:59:18;;;;;;;10.68;8.65;;;18.00;99.90;;;;;;5031226;28;20043;-76
2022/09/25 14:01:55;;;;;;;10.75;8.85;;;17.90;99.90;;;;;;5046386;28;20044;-74
2022/09/25 14:04:34;;;;;;;9.07;7.90;;;17.80;99.90;;;;;;5034565;28;20036;-75
2022/09/25 14:07:15;;;;;;;12.45;8.82;;;17.70;99.90;;;;;;5040242;28;20108;-74
2022/09/25 14:09:44;;;;;;;11.57;8.25;;;17.50;99.90;;;;;;5036977;28;20037;-74
2022/09/25 14:12:24;;;;;;;13.30;8.70;;;17.60;99.90;;;;;;5041670;28;20032;-73
2022/09/25 14:14:57;;;;;;;10.60;7.38;;;17.80;99.90;;;;;;5037071;28;20432;-75
2022/09/25 14:17:24;;;;;;;8.60;7.13;;;17.90;99.90;;;;;;5030532;28;20032;-75
2022/09/25 14:19:53;;;;;;;8.88;6.65;;;17.80;99.90;;;;;;5045524;28;20034;-74
2022/09/25 14:22:52;;;;;;;10.48;8.02;;;17.70;99.90;;;;;;5034422;28;20084;-75
2022/09/25 14:25:37;;;;;;;9.50;7.70;;;17.70;99.90;;;;;;5040927;28;20033;-73
2022/09/25 14:28:23;;;;;;;9.38;6.47;;;17.60;99.90;;;;;;5042404;28;20428;-75
2022/09/25 14:31:10;;;;;;;8.68;7.00;;;17.60;99.90;;;;;;5039114;28;20044;-74
2022/09/25 14:33:57;;;;;;;6.80;5.90;;;17.70;99.90;;;;;;5043288;28;20033;-73
2022/09/25 14:36:46;;;;;;;10.93;6.65;;;17.70;99.90;;;;;;5037582;28;20465;-78
2022/09/25 14:39:17;;;;;;;7.88;6.72;;;17.70;99.90;;;;;;5030145;28;20041;-75
2022/09/25 14:41:43;;;;;;;7.93;6.38;;;17.70;99.90;;;;;;5035162;28;20034;-74
2022/09/25 14:44:48;;;;;;;9.40;7.47;;;17.80;99.90;;;;;;5040470;28;20053;-77
2022/09/25 14:47:16;;;;;;;8.43;7.05;;;17.80;99.90;;;;;;5031484;28;20037;-77
2022/09/25 14:49:47;;;;;;;9.20;7.88;;;17.80;99.90;;;;;;5031911;28;20103;-76
2022/09/25 14:52:22;;;;;;;8.65;6.20;;;17.90;99.90;;;;;;5039249;28;20552;-76